Time;durP1;ratioP1;P1;durP2;ratioP2;P2;SDS_P1;SDS_P2;PMS_P1;PMS_P2;Temp;Humidity;BMP_temperature;BMP_pressure;BME280_temperature;BME280_humidity;BME280_pressure;Samples;Min_cycle;Max_cycle;Signal;HPM_P1;HPM_P2
2021/10/03 00:02:23;;;;;;;7.50;4.53;;;14.20;66.40;;;;;;5046282;28;20032;-74
2021/10/03 00:04:53;;;;;;;10.63;5.38;;;14.20;66.40;;;;;;5045552;28;20025;-74
2021/10/03 00:07:21;;;;;;;9.05;4.63;;;14.20;66.80;;;;;;5040010;28;20420;-74
2021/10/03 00:09:50;;;;;;;9.73;4.93;;;14.10;66.80;;;;;;5045519;28;20021;-74
2021/10/03 00:12:21;;;;;;;9.95;4.57;;;14.10;66.80;;;;;;5046163;28;20583;-73
2021/10/03 00:14:49;;;;;;;8.88;4.07;;;14.00;66.90;;;;;;5044161;28;20013;-73
2021/10/03 00:17:15;;;;;;;10.55;4.55;;;14.00;67.00;;;;;;5044347;28;20063;-73
2021/10/03 00:19:42;;;;;;;6.70;3.45;;;13.90;67.20;;;;;;5044683;28;20055;-73
2021/10/03 00:22:10;;;;;;;8.48;4.35;;;13.90;67.30;;;;;;5043712;28;20017;-73
2021/10/03 00:24:36;;;;;;;9.63;4.22;;;13.90;67.50;;;;;;5042359;28;20049;-74
2021/10/03 00:27:03;;;;;;;7.47;4.15;;;13.90;67.60;;;;;;5040446;28;20108;-72
2021/10/03 00:29:31;;;;;;;7.13;3.80;;;13.80;67.60;;;;;;5045983;28;20032;-73
2021/10/03 00:31:58;;;;;;;6.93;3.28;;;13.90;67.80;;;;;;5040486;28;20044;-73
2021/10/03 00:34:24;;;;;;;8.60;4.10;;;13.90;67.90;;;;;;5041142;28;20455;-74
2021/10/03 00:36:50;;;;;;;7.45;3.80;;;13.90;67.60;;;;;;5046101;28;20025;-74
2021/10/03 00:39:17;;;;;;;7.50;3.00;;;13.90;67.40;;;;;;5043475;28;20448;-73
2021/10/03 00:41:44;;;;;;;6.63;2.83;;;13.90;67.50;;;;;;5045461;28;20021;-74
2021/10/03 00:44:11;;;;;;;7.85;3.05;;;13.90;67.80;;;;;;5041986;28;20109;-73
2021/10/03 00:46:37;;;;;;;9.55;3.75;;;13.90;67.50;;;;;;5047461;28;20021;-74
2021/10/03 00:49:04;;;;;;;7.18;3.53;;;13.90;67.10;;;;;;5042773;28;20468;-73
2021/10/03 00:51:31;;;;;;;8.55;3.25;;;14.00;67.80;;;;;;5041330;28;20017;-74
2021/10/03 00:53:57;;;;;;;10.70;3.53;;;13.90;67.30;;;;;;5043456;28;20541;-74
2021/10/03 00:56:24;;;;;;;10.95;3.85;;;13.90;67.10;;;;;;5042270;28;20029;-73
2021/10/03 00:58:51;;;;;;;5.18;3.15;;;13.80;67.30;;;;;;5042754;28;20124;-74
2021/10/03 01:01:17;;;;;;;5.65;3.15;;;13.80;67.30;;;;;;5041700;28;20476;-74
2021/10/03 01:03:44;;;;;;;7.53;3.95;;;13.80;67.50;;;;;;5043057;28;20018;-74
2021/10/03 01:06:10;;;;;;;8.88;4.55;;;13.70;67.60;;;;;;5042248;28;20017;-74
2021/10/03 01:08:37;;;;;;;4.97;2.90;;;13.70;67.60;;;;;;5045248;28;20120;-74
2021/10/03 01:11:04;;;;;;;6.80;3.53;;;13.70;67.60;;;;;;5041053;28;20025;-74
2021/10/03 01:13:32;;;;;;;7.28;2.55;;;13.60;67.70;;;;;;5043606;28;20021;-75
2021/10/03 01:15:59;;;;;;;5.13;2.30;;;13.60;67.80;;;;;;5040294;28;20020;-73
2021/10/03 01:18:25;;;;;;;5.90;2.95;;;13.60;68.00;;;;;;5046990;28;20029;-74
2021/10/03 01:20:52;;;;;;;7.13;4.03;;;13.50;68.30;;;;;;5046825;28;20033;-74
2021/10/03 01:23:19;;;;;;;6.78;1.95;;;13.50;68.60;;;;;;5043287;28;20427;-74
2021/10/03 01:25:49;;;;;;;3.88;1.50;;;13.50;68.40;;;;;;5042106;28;20025;-74
2021/10/03 01:28:17;;;;;;;7.75;2.85;;;13.60;68.50;;;;;;5043079;28;20033;-74
2021/10/03 01:30:48;;;;;;;4.68;2.40;;;13.60;68.60;;;;;;5039012;28;20028;-74
2021/10/03 01:33:16;;;;;;;6.80;2.53;;;13.60;68.80;;;;;;5044841;28;20028;-74
2021/10/03 01:35:44;;;;;;;5.43;2.75;;;13.60;68.60;;;;;;5041090;28;20014;-73
2021/10/03 01:38:14;;;;;;;9.68;2.03;;;13.60;68.80;;;;;;5043053;28;20071;-74
2021/10/03 01:40:45;;;;;;;8.40;1.67;;;13.60;68.50;;;;;;5041921;28;20029;-72
2021/10/03 01:43:13;;;;;;;6.45;2.30;;;13.60;68.40;;;;;;5043769;28;20024;-73
2021/10/03 01:45:39;;;;;;;5.97;2.15;;;13.60;68.30;;;;;;5045000;28;20024;-73
2021/10/03 01:48:14;;;;;;;7.72;3.53;;;13.50;68.40;;;;;;5044536;28;20035;-73
2021/10/03 01:51:04;;;;;;;16.85;3.53;;;13.60;68.30;;;;;;5041928;28;20111;-74
2021/10/03 01:53:36;;;;;;;4.68;1.92;;;13.50;68.30;;;;;;5041690;28;20510;-74
2021/10/03 01:56:05;;;;;;;7.22;1.40;;;13.50;68.50;;;;;;5042291;28;20017;-73
2021/10/03 01:58:36;;;;;;;5.30;1.42;;;13.40;68.50;;;;;;5044112;28;20404;-72
2021/10/03 02:01:12;;;;;;;2.47;1.35;;;13.40;68.40;;;;;;5041067;28;20029;-73
2021/10/03 02:03:38;;;;;;;4.28;1.50;;;13.40;68.20;;;;;;5043263;28;20526;-74
2021/10/03 02:06:05;;;;;;;5.10;1.98;;;13.40;68.20;;;;;;5043134;28;20135;-74
2021/10/03 02:08:31;;;;;;;5.35;1.90;;;13.40;68.30;;;;;;5042796;28;20496;-74
2021/10/03 02:10:58;;;;;;;5.45;1.60;;;13.40;68.50;;;;;;5045691;28;20013;-73
2021/10/03 02:13:25;;;;;;;2.80;1.23;;;13.30;68.30;;;;;;5044353;28;20672;-73
2021/10/03 02:15:52;;;;;;;4.57;1.90;;;13.30;68.50;;;;;;5042259;28;20116;-73
2021/10/03 02:18:21;;;;;;;3.42;2.00;;;13.20;68.70;;;;;;5042422;28;20032;-73
2021/10/03 02:20:53;;;;;;;3.03;1.85;;;13.20;68.90;;;;;;5039726;28;20029;-73
2021/10/03 02:23:20;;;;;;;5.68;2.15;;;13.20;68.90;;;;;;5038506;28;20032;-72
2021/10/03 02:25:47;;;;;;;3.47;1.70;;;13.20;69.00;;;;;;5045138;28;20380;-74
2021/10/03 02:28:19;;;;;;;3.38;1.45;;;13.30;69.10;;;;;;5044528;28;20028;-73
2021/10/03 02:30:48;;;;;;;4.95;1.50;;;13.30;69.10;;;;;;5044675;28;20074;-74
2021/10/03 02:33:15;;;;;;;4.43;1.00;;;13.30;69.20;;;;;;5041792;28;20029;-73
2021/10/03 02:35:44;;;;;;;4.43;1.23;;;13.30;69.30;;;;;;5036861;28;20024;-74
2021/10/03 02:38:14;;;;;;;3.63;1.48;;;13.30;69.20;;;;;;5045691;28;20095;-73
2021/10/03 02:40:42;;;;;;;2.97;1.05;;;13.30;69.20;;;;;;5043835;28;20545;-75
2021/10/03 02:43:09;;;;;;;4.93;1.33;;;13.30;69.40;;;;;;5048891;28;20052;-72
2021/10/03 02:45:40;;;;;;;4.85;1.23;;;13.30;69.50;;;;;;5043766;28;20032;-74
2021/10/03 02:48:07;;;;;;;4.78;1.52;;;13.30;69.60;;;;;;5041027;28;20017;-70
2021/10/03 02:50:33;;;;;;;4.90;1.75;;;13.30;69.60;;;;;;5043414;28;20571;-69
2021/10/03 02:53:00;;;;;;;5.30;1.25;;;13.40;69.50;;;;;;5040006;28;20013;-69
2021/10/03 02:55:26;;;;;;;3.85;1.30;;;13.40;69.30;;;;;;5043033;28;20157;-70
2021/10/03 02:57:53;;;;;;;3.65;1.20;;;13.40;69.30;;;;;;5041009;28;20044;-69
2021/10/03 03:00:19;;;;;;;7.18;2.00;;;13.40;69.10;;;;;;5044603;28;20053;-69
2021/10/03 03:02:46;;;;;;;3.25;2.35;;;13.40;69.10;;;;;;5043105;28;20018;-70
2021/10/03 03:05:13;;;;;;;6.68;2.40;;;13.40;69.10;;;;;;5040295;28;20049;-69
2021/10/03 03:07:40;;;;;;;6.10;1.38;;;13.40;68.90;;;;;;5041659;28;20045;-70
2021/10/03 03:10:08;;;;;;;4.28;1.00;;;13.40;68.90;;;;;;5039731;28;20105;-70
2021/10/03 03:12:36;;;;;;;6.95;0.80;;;13.40;68.80;;;;;;5043635;28;20029;-70
2021/10/03 03:15:08;;;;;;;4.22;1.60;;;13.30;69.00;;;;;;5043136;28;20024;-69
2021/10/03 03:17:36;;;;;;;3.67;1.55;;;13.40;69.00;;;;;;5042784;28;20029;-70
2021/10/03 03:20:05;;;;;;;9.05;1.67;;;13.40;68.90;;;;;;5041991;28;20442;-68
2021/10/03 03:22:32;;;;;;;2.85;1.02;;;13.30;68.90;;;;;;5042396;28;20028;-69
2021/10/03 03:24:59;;;;;;;5.35;1.95;;;13.40;69.00;;;;;;5043015;28;20013;-70
2021/10/03 03:27:25;;;;;;;4.00;1.33;;;13.30;69.40;;;;;;5046370;28;20017;-69
2021/10/03 03:29:52;;;;;;;4.57;1.30;;;13.30;69.20;;;;;;5039334;28;20017;-70
2021/10/03 03:32:19;;;;;;;4.28;1.95;;;13.40;69.70;;;;;;5042435;28;20017;-70
2021/10/03 03:34:45;;;;;;;5.75;1.35;;;13.30;69.70;;;;;;5038986;28;20063;-73
2021/10/03 03:37:12;;;;;;;4.60;1.88;;;13.30;70.10;;;;;;5043249;28;20428;-70
2021/10/03 03:39:38;;;;;;;3.55;1.85;;;13.30;70.20;;;;;;5038812;28;20643;-71
2021/10/03 03:42:05;;;;;;;1.67;1.00;;;13.20;70.20;;;;;;5042378;28;20366;-70
2021/10/03 03:44:32;;;;;;;6.50;2.10;;;13.20;70.50;;;;;;5037896;28;20044;-70
2021/10/03 03:47:00;;;;;;;5.40;2.15;;;13.10;71.00;;;;;;5039725;28;20020;-69
2021/10/03 03:49:27;;;;;;;5.57;1.60;;;13.10;70.80;;;;;;5037426;28;20555;-69
2021/10/03 03:51:54;;;;;;;3.53;1.95;;;13.10;71.20;;;;;;5040263;28;20067;-70
2021/10/03 03:54:22;;;;;;;2.72;1.90;;;13.00;71.30;;;;;;5041283;28;20030;-70
2021/10/03 03:56:48;;;;;;;3.55;1.42;;;13.00;71.40;;;;;;5039808;28;20953;-69
2021/10/03 03:59:15;;;;;;;5.70;2.35;;;13.00;71.70;;;;;;5041060;28;20107;-69
2021/10/03 04:01:42;;;;;;;5.38;3.13;;;13.00;71.60;;;;;;5043851;28;20037;-70
2021/10/03 04:04:09;;;;;;;3.85;2.90;;;13.00;71.60;;;;;;5043179;28;20072;-69
2021/10/03 04:06:36;;;;;;;5.38;2.80;;;13.00;71.40;;;;;;5044490;28;20017;-70
2021/10/03 04:09:03;;;;;;;4.78;3.15;;;12.90;70.70;;;;;;5041074;28;20492;-69
2021/10/03 04:11:29;;;;;;;6.95;3.42;;;12.90;70.10;;;;;;5040304;28;20067;-71
2021/10/03 04:13:56;;;;;;;5.75;4.30;;;12.80;70.20;;;;;;5045183;28;20051;-69
2021/10/03 04:16:22;;;;;;;5.95;2.80;;;12.70;70.50;;;;;;5042698;28;20025;-69
2021/10/03 04:18:49;;;;;;;6.32;2.60;;;12.70;70.40;;;;;;5038736;28;20514;-69
2021/10/03 04:21:15;;;;;;;5.55;2.58;;;12.60;70.20;;;;;;5039286;28;20039;-69
2021/10/03 04:23:42;;;;;;;7.10;3.25;;;12.60;70.60;;;;;;5041555;28;20032;-69
2021/10/03 04:26:08;;;;;;;6.85;3.50;;;12.60;70.80;;;;;;5040161;28;20471;-70
2021/10/03 04:28:35;;;;;;;6.78;3.00;;;12.60;70.70;;;;;;5041246;28;20032;-68
2021/10/03 04:31:02;;;;;;;4.95;2.63;;;12.50;70.80;;;;;;5042442;28;20016;-70
2021/10/03 04:33:28;;;;;;;9.45;3.15;;;12.60;71.30;;;;;;5041277;28;20020;-74
2021/10/03 04:35:55;;;;;;;6.50;2.05;;;12.60;71.30;;;;;;5038243;28;20500;-74
2021/10/03 04:38:21;;;;;;;16.58;10.75;;;12.70;71.50;;;;;;5041356;28;20451;-71
2021/10/03 04:40:48;;;;;;;51.75;33.25;;;12.70;71.90;;;;;;5041985;28;20052;-73
2021/10/03 04:43:14;;;;;;;12.25;7.93;;;12.70;72.40;;;;;;5036098;28;20083;-72
2021/10/03 04:45:42;;;;;;;8.05;2.80;;;12.80;71.90;;;;;;5033852;28;20404;-74
2021/10/03 04:48:08;;;;;;;7.75;3.40;;;12.90;72.20;;;;;;5040812;28;20556;-74
2021/10/03 04:50:35;;;;;;;10.82;3.38;;;12.90;72.20;;;;;;5036439;28;20095;-74
2021/10/03 04:53:02;;;;;;;5.25;3.03;;;13.00;72.20;;;;;;5037312;28;20044;-73
2021/10/03 04:55:28;;;;;;;6.68;3.05;;;13.00;72.20;;;;;;5039642;28;20032;-74
2021/10/03 04:57:54;;;;;;;5.30;3.35;;;13.00;72.10;;;;;;5038125;28;20045;-73
2021/10/03 05:00:21;;;;;;;9.15;3.33;;;13.10;72.40;;;;;;5036811;28;20044;-74
2021/10/03 05:02:47;;;;;;;11.32;6.28;;;13.10;72.40;;;;;;5037657;28;20039;-73
2021/10/03 05:05:14;;;;;;;53.58;35.35;;;13.20;72.20;;;;;;5035966;28;20013;-73
2021/10/03 05:07:40;;;;;;;48.53;37.20;;;13.30;71.60;;;;;;5044473;28;20028;-72
2021/10/03 05:10:07;;;;;;;12.70;8.38;;;13.30;71.20;;;;;;5040079;28;20090;-70
2021/10/03 05:12:34;;;;;;;6.93;2.95;;;13.40;70.90;;;;;;5040693;28;20022;-73
2021/10/03 05:15:00;;;;;;;5.68;2.15;;;13.50;70.60;;;;;;5030913;28;20025;-70
2021/10/03 05:17:27;;;;;;;5.75;2.10;;;13.50;70.40;;;;;;5035268;28;20036;-71
2021/10/03 05:19:53;;;;;;;6.30;2.67;;;13.50;70.20;;;;;;5036556;28;20036;-70
2021/10/03 05:22:20;;;;;;;7.22;2.10;;;13.50;69.90;;;;;;5032673;28;20522;-73
2021/10/03 05:24:46;;;;;;;10.55;3.42;;;13.50;69.70;;;;;;5031364;28;20530;-73
2021/10/03 05:27:13;;;;;;;5.85;3.33;;;13.50;70.30;;;;;;5030121;28;20476;-73
2021/10/03 05:29:39;;;;;;;12.13;4.00;;;13.60;71.20;;;;;;5033194;28;20495;-73
2021/10/03 05:32:06;;;;;;;7.85;2.35;;;13.60;70.60;;;;;;5028314;28;20028;-74
2021/10/03 05:34:32;;;;;;;5.43;2.47;;;13.60;70.10;;;;;;5030629;28;20043;-74
2021/10/03 05:36:59;;;;;;;6.28;2.75;;;13.60;69.70;;;;;;5030908;28;20025;-73
2021/10/03 05:39:25;;;;;;;6.18;1.90;;;13.60;69.30;;;;;;5031680;28;20030;-74
2021/10/03 05:41:52;;;;;;;6.55;2.35;;;13.60;69.00;;;;;;5030567;28;20500;-73
2021/10/03 05:44:18;;;;;;;7.18;3.53;;;13.70;69.30;;;;;;5032694;28;20068;-73
2021/10/03 05:46:45;;;;;;;5.78;2.38;;;13.70;68.70;;;;;;5033619;28;20018;-75
2021/10/03 05:49:11;;;;;;;8.63;2.50;;;13.70;68.60;;;;;;5029292;28;20103;-70
2021/10/03 05:51:38;;;;;;;8.30;2.55;;;13.80;68.80;;;;;;5032590;28;20025;-77
2021/10/03 05:54:05;;;;;;;6.65;2.85;;;13.80;68.90;;;;;;5029852;28;20025;-76
2021/10/03 05:56:34;;;;;;;5.63;2.90;;;13.90;69.10;;;;;;5031231;28;20372;-73
2021/10/03 05:59:02;;;;;;;5.82;2.80;;;13.90;69.30;;;;;;5031221;28;20041;-71
2021/10/03 06:01:28;;;;;;;5.30;2.70;;;14.00;69.40;;;;;;5038675;28;20076;-72
2021/10/03 06:03:56;;;;;;;7.90;4.95;;;14.00;69.00;;;;;;5031707;28;20006;-73
2021/10/03 06:06:23;;;;;;;22.90;15.68;;;14.10;68.70;;;;;;5031860;28;20104;-74
2021/10/03 06:08:49;;;;;;;12.35;5.75;;;14.20;69.10;;;;;;5034768;28;20079;-75
2021/10/03 06:11:16;;;;;;;10.40;3.35;;;14.30;68.40;;;;;;5034833;28;20021;-73
2021/10/03 06:13:42;;;;;;;7.57;2.92;;;14.30;68.30;;;;;;5035938;28;20563;-72
2021/10/03 06:16:09;;;;;;;9.85;3.13;;;14.40;68.20;;;;;;5031070;28;20103;-72
2021/10/03 06:18:35;;;;;;;9.68;2.83;;;14.40;68.10;;;;;;5037204;28;20021;-71
2021/10/03 06:21:02;;;;;;;9.43;4.07;;;14.40;68.00;;;;;;5036807;28;20041;-72
2021/10/03 06:23:28;;;;;;;8.57;3.42;;;14.50;68.20;;;;;;5035660;28;20029;-71
2021/10/03 06:25:55;;;;;;;12.57;3.90;;;14.50;68.30;;;;;;5033909;28;20399;-72
2021/10/03 06:28:24;;;;;;;9.82;3.38;;;14.60;68.30;;;;;;5035513;28;20156;-72
2021/10/03 06:30:51;;;;;;;12.75;4.68;;;14.60;68.10;;;;;;5034573;28;20022;-74
2021/10/03 06:33:17;;;;;;;11.32;3.92;;;14.60;67.80;;;;;;5031066;28;20036;-72
2021/10/03 06:35:44;;;;;;;9.55;3.25;;;14.60;67.70;;;;;;5031460;28;20022;-73
2021/10/03 06:38:10;;;;;;;9.25;3.13;;;14.70;67.70;;;;;;5032631;28;20028;-72
2021/10/03 06:40:37;;;;;;;14.55;3.63;;;14.70;67.50;;;;;;5032456;28;20066;-72
2021/10/03 06:43:03;;;;;;;12.90;3.83;;;14.70;67.40;;;;;;5036933;28;20112;-73
2021/10/03 06:45:30;;;;;;;10.20;3.25;;;14.70;67.30;;;;;;5044803;28;20412;-72
2021/10/03 06:47:57;;;;;;;9.95;3.88;;;14.80;67.50;;;;;;5033843;28;20029;-72
2021/10/03 06:50:23;;;;;;;13.73;3.33;;;14.80;67.00;;;;;;5030525;28;20661;-72
2021/10/03 06:52:50;;;;;;;26.58;16.85;;;14.90;66.90;;;;;;5030987;28;20079;-72
2021/10/03 06:55:16;;;;;;;30.30;14.63;;;14.90;66.90;;;;;;5029793;28;20505;-72
2021/10/03 06:57:42;;;;;;;23.92;15.63;;;15.00;67.30;;;;;;5031256;28;20392;-73
2021/10/03 07:00:09;;;;;;;18.75;5.35;;;15.10;66.70;;;;;;5030179;28;20086;-72
2021/10/03 07:03:02;;;;;;;10.73;4.25;;;15.10;66.40;;;;;;5037258;28;20124;-73
2021/10/03 07:05:29;;;;;;;10.15;3.88;;;15.20;67.00;;;;;;5037933;28;20399;-72
2021/10/03 07:07:56;;;;;;;15.00;4.28;;;15.30;67.40;;;;;;5035793;28;20032;-72
2021/10/03 07:10:23;;;;;;;28.52;17.83;;;15.30;67.60;;;;;;5038271;28;20029;-73
2021/10/03 07:12:49;;;;;;;13.13;5.18;;;15.40;67.40;;;;;;5036736;28;20048;-72
2021/10/03 07:15:16;;;;;;;14.20;4.32;;;15.50;66.90;;;;;;5037814;28;20040;-73
2021/10/03 07:17:42;;;;;;;14.30;4.00;;;15.50;66.10;;;;;;5035614;28;20017;-72
2021/10/03 07:20:09;;;;;;;9.48;3.03;;;15.60;65.40;;;;;;5040336;28;20084;-73
2021/10/03 07:22:36;;;;;;;10.63;3.67;;;15.60;64.50;;;;;;5038948;28;20074;-71
2021/10/03 07:25:12;;;;;;;6.22;4.10;;;15.70;64.60;;;;;;5043337;28;20021;-74
2021/10/03 07:27:38;;;;;;;13.90;5.30;;;15.80;65.30;;;;;;5045608;28;20146;-72
2021/10/03 07:30:06;;;;;;;11.45;3.88;;;15.80;64.90;;;;;;5046070;28;20118;-76
2021/10/03 07:32:33;;;;;;;15.75;4.72;;;15.80;64.20;;;;;;5042722;28;20021;-72
2021/10/03 07:34:59;;;;;;;26.63;15.52;;;15.90;64.00;;;;;;5043576;28;20449;-72
2021/10/03 07:37:26;;;;;;;67.60;43.97;;;16.00;63.80;;;;;;5046500;28;20586;-72
2021/10/03 07:39:52;;;;;;;26.55;14.90;;;16.10;64.20;;;;;;5043492;28;20123;-71
2021/10/03 07:42:19;;;;;;;12.05;5.85;;;16.20;63.50;;;;;;5042087;28;20020;-71
2021/10/03 07:44:45;;;;;;;7.65;2.65;;;16.20;61.80;;;;;;5041852;28;20029;-69
2021/10/03 07:47:12;;;;;;;10.18;3.55;;;16.30;61.30;;;;;;5037671;28;20404;-74
2021/10/03 07:49:38;;;;;;;5.60;1.98;;;16.40;60.90;;;;;;5038680;28;20033;-69
2021/10/03 07:52:05;;;;;;;8.88;2.35;;;16.40;60.80;;;;;;5038298;28;20021;-71
2021/10/03 07:54:32;;;;;;;11.27;3.20;;;16.50;61.00;;;;;;5037586;28;21303;-74
2021/10/03 07:56:58;;;;;;;9.10;2.10;;;16.50;60.00;;;;;;5036397;28;20500;-71
2021/10/03 07:59:25;;;;;;;11.93;3.15;;;16.60;60.10;;;;;;5036657;28;20160;-70
2021/10/03 08:01:51;;;;;;;6.20;2.10;;;16.60;59.70;;;;;;5036395;28;20025;-72
2021/10/03 08:04:18;;;;;;;6.32;2.08;;;16.60;59.20;;;;;;5042082;28;20064;-73
2021/10/03 08:06:44;;;;;;;7.60;1.77;;;16.60;58.60;;;;;;5038534;28;20105;-70
2021/10/03 08:09:11;;;;;;;7.70;2.38;;;16.60;58.60;;;;;;5038857;28;20511;-73
2021/10/03 08:11:37;;;;;;;7.13;2.10;;;16.60;59.70;;;;;;5035788;28;20108;-74
2021/10/03 08:14:04;;;;;;;4.22;1.20;;;16.60;60.40;;;;;;5040284;28;20036;-73
2021/10/03 08:16:30;;;;;;;5.40;1.27;;;16.60;58.90;;;;;;5038665;28;20039;-74
2021/10/03 08:18:58;;;;;;;6.78;2.08;;;16.60;58.80;;;;;;5039281;28;20849;-72
2021/10/03 08:21:26;;;;;;;3.70;1.30;;;16.60;59.30;;;;;;5035494;28;20112;-70
2021/10/03 08:23:53;;;;;;;3.65;1.08;;;16.70;58.70;;;;;;5034461;28;20024;-70
2021/10/03 08:26:20;;;;;;;19.80;14.73;;;16.60;59.10;;;;;;5033103;28;20083;-73
2021/10/03 08:28:47;;;;;;;213.05;159.55;;;16.70;59.00;;;;;;5035814;28;20092;-73
2021/10/03 08:31:13;;;;;;;41.88;31.10;;;16.70;59.20;;;;;;5035049;28;20022;-69
2021/10/03 08:33:40;;;;;;;10.85;6.10;;;16.90;58.90;;;;;;5043108;28;20021;-76
2021/10/03 08:36:06;;;;;;;6.85;1.13;;;16.90;58.40;;;;;;5042356;28;20025;-67
2021/10/03 08:38:33;;;;;;;4.82;1.85;;;17.00;57.60;;;;;;5036208;28;20132;-70
2021/10/03 08:41:04;;;;;;;2.88;0.70;;;17.10;57.30;;;;;;5035537;28;20048;-72
2021/10/03 08:43:30;;;;;;;5.18;1.42;;;17.10;56.70;;;;;;5031184;28;20075;-72
2021/10/03 08:45:58;;;;;;;5.97;1.10;;;17.10;56.70;;;;;;5033475;28;20503;-72
2021/10/03 08:48:26;;;;;;;5.18;2.13;;;17.10;56.50;;;;;;5030910;28;20017;-71
2021/10/03 08:50:52;;;;;;;3.50;1.20;;;17.00;56.90;;;;;;5029657;28;20100;-71
2021/10/03 08:53:19;;;;;;;7.80;2.35;;;17.00;57.10;;;;;;5033003;28;20062;-69
2021/10/03 08:55:46;;;;;;;7.70;2.45;;;17.10;57.00;;;;;;5029314;28;20021;-70
2021/10/03 08:58:16;;;;;;;9.90;4.18;;;17.20;57.30;;;;;;5031774;28;20056;-69
2021/10/03 09:00:48;;;;;;;9.80;3.08;;;17.30;57.30;;;;;;5028720;28;20559;-72
2021/10/03 09:03:17;;;;;;;6.43;1.75;;;17.50;55.90;;;;;;5031508;28;20013;-73
2021/10/03 09:05:52;;;;;;;4.28;1.65;;;17.60;55.90;;;;;;5030574;28;20079;-72
2021/10/03 09:08:27;;;;;;;7.22;1.10;;;17.70;55.30;;;;;;5031411;28;20455;-72
2021/10/03 09:11:06;;;;;;;3.53;1.42;;;17.90;54.90;;;;;;5032914;28;20048;-72
2021/10/03 09:13:32;;;;;;;4.63;1.13;;;18.00;54.80;;;;;;5031673;28;20388;-72
2021/10/03 09:16:14;;;;;;;4.68;1.25;;;18.00;54.20;;;;;;5035291;28;20055;-72
2021/10/03 09:18:48;;;;;;;2.45;1.30;;;18.00;54.00;;;;;;5035929;28;20025;-72
2021/10/03 09:21:36;;;;;;;2.20;1.00;;;17.80;53.90;;;;;;5030651;28;20039;-71
2021/10/03 09:24:14;;;;;;;5.75;1.17;;;17.80;53.50;;;;;;5032377;28;20326;-72
2021/10/03 09:27:07;;;;;;;3.72;0.82;;;17.60;54.00;;;;;;5031457;28;20022;-71
2021/10/03 09:29:36;;;;;;;6.53;0.70;;;17.40;53.20;;;;;;5030401;28;20126;-69
2021/10/03 09:32:18;;;;;;;4.07;1.02;;;17.30;54.50;;;;;;5035268;28;20048;-71
2021/10/03 09:34:49;;;;;;;7.18;0.90;;;17.20;55.50;;;;;;5033897;28;20029;-74
2021/10/03 09:37:23;;;;;;;1.23;0.70;;;17.20;56.20;;;;;;5035150;28;20032;-73
2021/10/03 09:40:01;;;;;;;4.32;0.73;;;17.10;56.20;;;;;;5037167;28;20068;-73
2021/10/03 09:42:27;;;;;;;1.25;0.73;;;17.10;57.60;;;;;;5031814;28;20025;-73
2021/10/03 09:45:13;;;;;;;5.07;1.08;;;17.00;57.50;;;;;;5033459;28;20060;-70
2021/10/03 09:47:42;;;;;;;2.13;0.98;;;16.90;56.60;;;;;;5031855;28;20121;-73
2021/10/03 09:50:11;;;;;;;4.57;0.95;;;16.90;57.50;;;;;;5034284;28;20087;-72
2021/10/03 09:52:40;;;;;;;2.50;0.60;;;16.80;57.30;;;;;;5031602;28;20052;-74
2021/10/03 09:55:14;;;;;;;6.80;1.05;;;16.90;57.80;;;;;;5033543;28;20056;-72
2021/10/03 09:57:42;;;;;;;1.35;1.23;;;16.90;57.30;;;;;;5033178;28;20041;-72
2021/10/03 10:00:16;;;;;;;6.20;1.60;;;16.90;57.70;;;;;;5030608;28;20048;-72
2021/10/03 10:02:48;;;;;;;5.93;2.42;;;16.90;58.00;;;;;;5033460;28;20377;-71
2021/10/03 10:05:14;;;;;;;6.47;2.38;;;16.90;58.60;;;;;;5030725;28;20496;-71
2021/10/03 10:07:41;;;;;;;4.10;1.70;;;16.90;58.20;;;;;;5031998;28;20108;-71
2021/10/03 10:10:09;;;;;;;7.10;1.58;;;16.90;58.60;;;;;;5030705;28;20021;-73
2021/10/03 10:12:43;;;;;;;4.28;1.80;;;16.80;58.60;;;;;;5033290;28;20017;-73
2021/10/03 10:15:12;;;;;;;4.40;2.17;;;16.80;58.20;;;;;;5032537;28;20487;-72
2021/10/03 10:17:41;;;;;;;5.90;0.98;;;16.80;58.00;;;;;;5029841;28;20126;-72
2021/10/03 10:20:24;;;;;;;2.97;2.00;;;16.80;57.90;;;;;;5033583;28;20029;-70
2021/10/03 10:22:54;;;;;;;4.13;1.88;;;16.80;58.40;;;;;;5032180;28;20028;-71
2021/10/03 10:25:38;;;;;;;1.67;1.25;;;16.70;59.00;;;;;;5033545;28;20586;-71
2021/10/03 10:28:08;;;;;;;4.88;1.75;;;16.60;59.90;;;;;;5030748;28;20068;-71
2021/10/03 10:30:37;;;;;;;34.70;24.20;;;16.60;60.60;;;;;;5030928;28;20144;-71
2021/10/03 10:33:07;;;;;;;7.30;4.75;;;16.70;60.90;;;;;;5034113;28;20420;-73
2021/10/03 10:35:35;;;;;;;12.35;7.53;;;16.80;60.60;;;;;;5032737;28;20573;-71
2021/10/03 10:38:01;;;;;;;5.78;3.00;;;16.90;61.00;;;;;;5030350;28;20024;-72
2021/10/03 10:40:29;;;;;;;11.73;3.58;;;16.80;60.30;;;;;;5033346;28;20558;-72
2021/10/03 10:43:18;;;;;;;8.15;4.03;;;16.80;60.50;;;;;;5030966;28;20017;-72
2021/10/03 10:45:46;;;;;;;5.07;1.35;;;16.90;60.70;;;;;;5035588;28;20022;-69
2021/10/03 10:48:16;;;;;;;3.30;1.63;;;17.00;60.80;;;;;;5030771;28;20024;-71
2021/10/03 10:50:52;;;;;;;9.32;1.63;;;17.00;60.70;;;;;;5032812;28;20021;-74
2021/10/03 10:53:22;;;;;;;3.20;1.38;;;17.00;60.40;;;;;;5032545;28;22441;-72
2021/10/03 10:56:18;;;;;;;6.47;2.10;;;17.00;60.00;;;;;;5036330;28;20052;-71
2021/10/03 10:58:51;;;;;;;12.98;8.35;;;17.20;60.40;;;;;;5036770;28;20057;-72
2021/10/03 11:01:18;;;;;;;8.88;3.15;;;17.40;60.10;;;;;;5037316;28;20033;-72
2021/10/03 11:03:55;;;;;;;4.05;1.08;;;17.60;59.80;;;;;;5042095;28;20382;-72
2021/10/03 11:06:21;;;;;;;4.53;1.00;;;17.80;58.50;;;;;;5036254;28;20079;-72
2021/10/03 11:09:14;;;;;;;4.63;1.05;;;17.80;58.00;;;;;;5035237;28;20104;-73
2021/10/03 11:12:02;;;;;;;6.70;1.98;;;17.90;57.50;;;;;;5035246;28;20021;-73
2021/10/03 11:14:30;;;;;;;3.83;2.30;;;17.90;57.80;;;;;;5032957;28;20043;-72
2021/10/03 11:17:07;;;;;;;3.88;2.28;;;17.90;58.20;;;;;;5032772;28;20021;-73
2021/10/03 11:19:34;;;;;;;12.60;7.32;;;17.80;58.60;;;;;;5030933;28;20122;-71
2021/10/03 11:22:19;;;;;;;15.95;10.52;;;17.80;58.90;;;;;;5032424;28;21165;-73
2021/10/03 11:24:55;;;;;;;;;;;17.70;58.30;;;;;;5033712;28;20025;-72
2021/10/03 11:27:26;;;;;;;2.78;1.33;;;17.60;59.20;;;;;;5046474;28;20334;-71
2021/10/03 11:29:58;;;;;;;10.43;4.35;;;17.60;59.60;;;;;;5033529;28;20033;-71
2021/10/03 11:32:30;;;;;;;13.65;7.30;;;17.60;60.10;;;;;;5047621;28;20025;-71
2021/10/03 11:35:12;;;;;;;11.73;4.90;;;17.50;60.50;;;;;;5036871;28;20053;-71
2021/10/03 11:37:40;;;;;;;8.10;3.58;;;17.50;60.20;;;;;;5035898;28;20025;-70
2021/10/03 11:40:14;;;;;;;7.63;2.08;;;17.40;60.50;;;;;;5033667;28;20025;-71
2021/10/03 11:42:50;;;;;;;11.30;2.30;;;17.40;60.80;;;;;;5035593;28;20021;-71
2021/10/03 11:45:17;;;;;;;;;;;17.40;61.20;;;;;;5034496;28;20018;-71
2021/10/03 11:47:54;;;;;;;4.85;1.88;;;17.40;61.40;;;;;;5034296;28;20000;-71
2021/10/03 11:50:28;;;;;;;3.80;1.48;;;17.40;61.40;;;;;;5036485;28;20460;-71
2021/10/03 11:52:57;;;;;;;3.55;1.23;;;17.50;61.00;;;;;;5038239;28;20028;-70
2021/10/03 11:55:43;;;;;;;5.68;2.20;;;17.60;61.20;;;;;;5035090;28;20025;-71
2021/10/03 11:58:16;;;;;;;8.43;3.28;;;17.70;61.40;;;;;;5031942;28;20528;-71
2021/10/03 12:00:51;;;;;;;10.00;5.35;;;17.70;60.00;;;;;;5036313;28;20487;-72
2021/10/03 12:03:18;;;;;;;4.25;1.92;;;17.80;60.30;;;;;;5038089;28;20025;-71
2021/10/03 12:05:45;;;;;;;6.90;1.42;;;18.00;59.90;;;;;;5035168;28;20021;-71
2021/10/03 12:08:17;;;;;;;5.93;2.22;;;18.10;60.00;;;;;;5036866;28;20083;-73
2021/10/03 12:10:50;;;;;;;4.95;1.65;;;18.20;60.20;;;;;;5036793;28;20051;-72
2021/10/03 12:13:26;;;;;;;6.15;2.80;;;18.30;60.10;;;;;;5033690;28;20017;-71
2021/10/03 12:16:06;;;;;;;3.88;1.00;;;18.40;59.50;;;;;;5033383;28;20017;-73
2021/10/03 12:18:43;;;;;;;3.30;0.77;;;18.50;56.20;;;;;;5032571;28;20475;-70
2021/10/03 12:21:15;;;;;;;2.05;1.35;;;18.60;56.00;;;;;;5040118;28;20033;-71
2021/10/03 12:24:00;;;;;;;3.33;0.70;;;18.70;54.60;;;;;;5035684;28;20484;-71
2021/10/03 12:26:33;;;;;;;2.17;1.10;;;18.80;54.80;;;;;;5040132;28;20234;-71
2021/10/03 12:29:05;;;;;;;2.13;1.23;;;18.80;54.80;;;;;;5033014;28;20358;-72
2021/10/03 12:31:47;;;;;;;2.42;1.08;;;18.80;55.00;;;;;;5038435;28;20480;-72
2021/10/03 12:34:16;;;;;;;1.35;0.93;;;18.80;55.20;;;;;;5054521;28;20021;-71
2021/10/03 12:36:56;;;;;;;2.70;0.85;;;18.70;55.30;;;;;;5037966;28;20468;-72
2021/10/03 12:39:30;;;;;;;3.30;1.15;;;18.70;55.30;;;;;;5033545;28;20041;-72
2021/10/03 12:42:03;;;;;;;76.88;51.97;;;18.70;55.60;;;;;;5036489;28;20009;-72
2021/10/03 12:44:33;;;;;;;17.08;13.00;;;18.80;55.90;;;;;;5032318;28;20036;-73
2021/10/03 12:47:01;;;;;;;3.17;1.50;;;19.00;55.80;;;;;;5036484;28;20431;-71
2021/10/03 12:49:28;;;;;;;3.65;1.13;;;19.20;54.60;;;;;;5034950;28;20013;-73
2021/10/03 12:51:54;;;;;;;2.65;0.75;;;19.30;54.00;;;;;;5033510;28;20490;-72
2021/10/03 12:54:21;;;;;;;5.90;1.00;;;19.30;53.60;;;;;;5030670;28;20047;-73
2021/10/03 12:56:47;;;;;;;2.67;0.88;;;19.30;53.20;;;;;;5032949;28;20112;-72